Time;durP1;ratioP1;P1;durP2;ratioP2;P2;SDS_P1;SDS_P2;PMS_P1;PMS_P2;Temp;Humidity;BMP_temperature;BMP_pressure;BME280_temperature;BME280_humidity;BME280_pressure;Samples;Min_cycle;Max_cycle;Signal;HPM_P1;HPM_P2
2022/03/04 00:02:52;;;;;;;15.57;13.97;;;3.60;79.50;;;;;;10452278;28;20565;-79
2022/03/04 00:07:55;;;;;;;13.37;12.00;;;3.60;79.50;;;;;;10445287;28;20288;-79
2022/03/04 00:12:58;;;;;;;14.90;13.40;;;3.60;78.60;;;;;;10435170;28;20221;-79
2022/03/04 00:18:00;;;;;;;14.17;12.67;;;3.50;78.80;;;;;;10440294;28;20201;-79
2022/03/04 00:23:02;;;;;;;15.20;13.57;;;3.40;77.70;;;;;;10436989;28;20304;-79
2022/03/04 00:28:06;;;;;;;15.40;13.80;;;3.40;80.50;;;;;;10453449;28;20193;-79
2022/03/04 00:33:08;;;;;;;17.57;14.60;;;3.40;80.40;;;;;;10434439;28;20387;-79
2022/03/04 00:38:10;;;;;;;16.50;14.57;;;3.40;82.40;;;;;;10457766;28;20615;-79
2022/03/04 00:43:14;;;;;;;15.93;14.10;;;3.30;79.80;;;;;;10412382;28;20267;-79
2022/03/04 00:48:16;;;;;;;16.10;13.80;;;3.40;80.80;;;;;;10451849;28;20220;-79
2022/03/04 00:53:18;;;;;;;15.73;13.93;;;3.30;79.20;;;;;;10445693;28;20213;-79
2022/03/04 00:58:21;;;;;;;18.00;15.27;;;3.20;78.60;;;;;;10453165;28;20225;-79
2022/03/04 01:03:24;;;;;;;19.30;15.60;;;3.20;80.20;;;;;;10447720;28;20312;-78
2022/03/04 01:08:26;;;;;;;14.13;12.63;;;3.10;79.90;;;;;;10431309;28;20216;-79
2022/03/04 01:13:29;;;;;;;15.87;13.07;;;3.10;79.40;;;;;;10452415;28;20217;-80
2022/03/04 01:18:31;;;;;;;15.83;13.63;;;3.00;77.30;;;;;;10442071;28;20259;-78
2022/03/04 01:23:34;;;;;;;20.03;13.67;;;3.00;79.00;;;;;;10410244;28;20231;-78
2022/03/04 01:28:38;;;;;;;18.00;14.47;;;2.90;80.00;;;;;;10430175;28;20201;-81
2022/03/04 01:33:40;;;;;;;16.27;14.50;;;2.80;79.30;;;;;;10435354;28;20247;-80
2022/03/04 01:38:42;;;;;;;15.90;13.77;;;2.80;78.90;;;;;;10452279;28;20206;-80
2022/03/04 01:43:46;;;;;;;16.83;13.80;;;2.80;78.70;;;;;;10448315;28;20219;-81
2022/03/04 01:48:48;;;;;;;17.87;15.33;;;2.80;79.90;;;;;;10434776;28;20292;-80
2022/03/04 01:53:50;;;;;;;17.77;15.03;;;2.70;79.20;;;;;;10417281;28;20197;-80
2022/03/04 01:58:54;;;;;;;15.43;13.90;;;2.70;80.30;;;;;;10430754;28;20296;-80
2022/03/04 02:03:56;;;;;;;15.80;14.20;;;2.70;80.80;;;;;;10440868;28;20649;-80
2022/03/04 02:08:58;;;;;;;18.93;15.93;;;2.80;81.50;;;;;;10426157;28;20295;-79
2022/03/04 02:14:01;;;;;;;13.67;11.97;;;2.70;83.10;;;;;;10426886;28;20204;-79
2022/03/04 02:19:04;;;;;;;15.23;13.73;;;2.80;80.90;;;;;;10450098;28;20241;-81
2022/03/04 02:24:08;;;;;;;15.80;14.20;;;2.70;80.70;;;;;;10442680;28;20217;-80
2022/03/04 02:29:10;;;;;;;20.80;15.40;;;2.70;81.80;;;;;;10441998;28;20229;-81
2022/03/04 02:34:12;;;;;;;17.63;14.80;;;2.70;82.60;;;;;;10424179;28;20255;-80
2022/03/04 02:39:16;;;;;;;16.10;14.40;;;2.70;81.80;;;;;;10477200;22;20693;-83
2022/03/04 02:44:18;;;;;;;16.60;14.90;;;2.70;81.80;;;;;;10413493;28;20249;-80
2022/03/04 02:49:20;;;;;;;18.80;15.07;;;2.70;82.00;;;;;;10411033;28;20290;-81
2022/03/04 02:54:24;;;;;;;17.83;15.10;;;2.70;82.60;;;;;;10371917;28;20225;-81
2022/03/04 02:59:26;;;;;;;18.27;16.40;;;2.70;82.00;;;;;;10390932;28;20210;-85
2022/03/04 03:04:28;;;;;;;18.80;15.63;;;2.70;80.50;;;;;;10392450;28;20226;-84
2022/03/04 03:09:31;;;;;;;17.37;15.57;;;2.50;82.80;;;;;;10378303;28;20218;-80
2022/03/04 03:14:34;;;;;;;19.37;15.27;;;2.60;82.50;;;;;;10379812;28;20290;-81
2022/03/04 03:19:36;;;;;;;18.20;16.10;;;2.50;81.20;;;;;;10383216;28;20217;-83
2022/03/04 03:24:40;;;;;;;18.93;16.07;;;2.50;81.80;;;;;;10380069;28;20225;-82
2022/03/04 03:29:42;;;;;;;17.67;15.73;;;2.50;81.20;;;;;;10395371;28;20267;-82
2022/03/04 03:34:44;;;;;;;16.97;15.17;;;2.40;81.50;;;;;;10373522;28;20194;-83
2022/03/04 03:39:49;;;;;;;21.93;15.73;;;2.40;81.70;;;;;;10381520;28;20285;-82
2022/03/04 03:44:51;;;;;;;19.73;16.23;;;2.40;82.00;;;;;;10396915;28;20229;-84
2022/03/04 03:49:53;;;;;;;20.43;16.10;;;2.40;80.70;;;;;;10405634;28;20297;-81
2022/03/04 03:54:57;;;;;;;19.97;16.67;;;2.40;82.10;;;;;;10389576;28;20191;-80
2022/03/04 03:59:59;;;;;;;18.57;16.60;;;2.30;80.40;;;;;;10400769;28;20217;-82
2022/03/04 04:05:01;;;;;;;18.73;16.30;;;2.30;81.20;;;;;;10390461;28;20320;-81
2022/03/04 04:10:06;;;;;;;17.57;15.40;;;2.30;80.80;;;;;;10388279;28;20245;-83
2022/03/04 04:15:08;;;;;;;19.00;16.73;;;2.20;80.70;;;;;;10394829;28;20301;-81
2022/03/04 04:20:11;;;;;;;21.23;16.47;;;2.10;80.20;;;;;;10388084;28;20214;-82
2022/03/04 04:25:15;;;;;;;19.20;15.70;;;2.10;81.70;;;;;;10385719;28;20220;-83
2022/03/04 04:30:17;;;;;;;20.30;17.17;;;2.00;80.20;;;;;;10390463;28;20694;-85
2022/03/04 04:35:19;;;;;;;19.37;15.97;;;1.90;80.70;;;;;;10388280;28;20212;-84
2022/03/04 04:40:23;;;;;;;17.60;15.70;;;2.00;82.30;;;;;;10372196;28;20703;-83
2022/03/04 04:45:25;;;;;;;18.73;16.17;;;2.00;84.30;;;;;;10370249;28;20305;-83
2022/03/04 04:50:27;;;;;;;18.03;15.97;;;2.10;83.10;;;;;;10376351;28;20238;-83
2022/03/04 04:55:31;;;;;;;18.83;16.77;;;2.00;84.50;;;;;;10384157;28;20233;-82
2022/03/04 05:00:33;;;;;;;18.33;16.27;;;2.00;83.20;;;;;;10372645;28;20268;-84
2022/03/04 05:05:36;;;;;;;19.57;16.70;;;2.00;82.40;;;;;;10373661;28;20236;-83
2022/03/04 05:10:39;;;;;;;20.03;17.93;;;2.00;83.00;;;;;;10373332;28;20269;-82
2022/03/04 05:15:41;;;;;;;20.77;17.97;;;2.00;84.40;;;;;;10390003;28;20276;-84
2022/03/04 05:20:44;;;;;;;19.97;17.87;;;1.90;84.20;;;;;;10383177;28;20222;-82
2022/03/04 05:25:47;;;;;;;20.27;17.70;;;1.90;83.70;;;;;;10384365;28;20273;-82
2022/03/04 05:30:49;;;;;;;20.33;17.20;;;1.90;83.50;;;;;;10372760;28;20233;-83
2022/03/04 05:35:51;;;;;;;18.80;16.80;;;1.90;82.60;;;;;;10388653;28;20206;-81
2022/03/04 05:40:55;;;;;;;22.33;19.20;;;1.90;82.80;;;;;;10391661;28;20229;-85
2022/03/04 05:45:57;;;;;;;20.30;17.53;;;1.80;82.10;;;;;;10378559;28;20542;-83
2022/03/04 05:50:59;;;;;;;23.40;18.30;;;1.70;84.00;;;;;;10370508;28;20218;-82
2022/03/04 05:56:03;;;;;;;19.87;16.97;;;1.70;83.90;;;;;;10397151;28;20201;-83
2022/03/04 06:01:07;;;;;;;22.17;18.17;;;1.70;83.50;;;;;;10420161;28;20222;-84
2022/03/04 06:06:11;;;;;;;20.90;17.30;;;1.70;84.70;;;;;;10402864;28;20352;-81
2022/03/04 06:11:15;;;;;;;19.93;17.70;;;1.70;86.40;;;;;;10390831;28;20232;-80
2022/03/04 06:16:17;;;;;;;19.83;17.73;;;1.80;85.10;;;;;;10399944;28;20631;-82
2022/03/04 06:21:19;;;;;;;19.80;17.70;;;1.80;84.40;;;;;;10384170;28;20230;-82
2022/03/04 06:26:23;;;;;;;22.67;18.20;;;1.80;84.00;;;;;;10370892;28;20253;-82
2022/03/04 06:31:25;;;;;;;22.83;18.60;;;1.80;85.80;;;;;;10389256;28;20210;-82
2022/03/04 06:36:27;;;;;;;25.13;17.77;;;1.80;86.50;;;;;;10398302;28;20213;-83
2022/03/04 06:41:30;;;;;;;22.00;18.57;;;1.90;86.10;;;;;;10383800;28;20234;-83
2022/03/04 06:46:32;;;;;;;19.93;17.77;;;1.90;86.10;;;;;;10398644;28;20218;-82
2022/03/04 06:51:34;;;;;;;21.47;16.63;;;1.90;85.60;;;;;;10400991;28;20245;-82
2022/03/04 06:56:38;;;;;;;21.50;17.70;;;2.00;85.50;;;;;;10404185;28;20200;-84
2022/03/04 07:01:40;;;;;;;23.83;19.07;;;2.00;86.20;;;;;;10399167;28;20254;-84
2022/03/04 07:06:42;;;;;;;20.90;18.60;;;2.10;87.20;;;;;;10407515;28;20219;-84
2022/03/04 07:11:46;;;;;;;27.47;18.33;;;2.10;87.70;;;;;;10378138;28;20685;-85
2022/03/04 07:16:48;;;;;;;21.07;18.20;;;2.10;87.50;;;;;;10392306;28;20198;-85
2022/03/04 07:21:50;;;;;;;20.67;18.47;;;2.20;87.70;;;;;;10393456;28;20214;-84
2022/03/04 07:26:53;;;;;;;27.17;18.27;;;2.20;87.60;;;;;;10372723;28;20230;-84
2022/03/04 07:31:55;;;;;;;25.80;18.63;;;2.30;87.80;;;;;;10398484;28;20222;-84
2022/03/04 07:36:57;;;;;;;28.60;18.93;;;2.40;87.80;;;;;;10396240;28;20203;-84
2022/03/04 07:42:02;;;;;;;27.90;18.07;;;2.50;88.30;;;;;;10407455;28;20230;-84
2022/03/04 07:47:05;;;;;;;22.00;19.70;;;2.50;85.50;;;;;;10391124;28;20240;-82
2022/03/04 07:52:07;;;;;;;24.37;19.47;;;2.70;87.60;;;;;;10389874;28;20372;-83
2022/03/04 07:57:11;;;;;;;22.53;18.30;;;2.80;88.30;;;;;;10411215;28;20690;-83
2022/03/04 08:02:13;;;;;;;24.07;19.57;;;2.90;88.40;;;;;;10404770;28;20317;-82
2022/03/04 08:07:17;;;;;;;23.73;21.23;;;3.00;88.40;;;;;;10396552;28;20215;-82
2022/03/04 08:12:22;;;;;;;24.10;20.77;;;3.10;87.50;;;;;;10391232;28;20249;-82
2022/03/04 08:17:24;;;;;;;25.57;20.20;;;3.30;87.40;;;;;;10399103;28;20200;-82
2022/03/04 08:22:26;;;;;;;21.80;18.67;;;3.40;86.20;;;;;;10398443;28;20217;-82
2022/03/04 08:27:30;;;;;;;27.50;20.73;;;3.60;86.40;;;;;;10415560;28;20241;-83
2022/03/04 08:32:35;;;;;;;24.17;21.57;;;3.80;86.40;;;;;;10405260;28;20733;-82
2022/03/04 08:37:38;;;;;;;25.43;20.07;;;4.00;84.50;;;;;;10420548;28;20190;-82
2022/03/04 08:42:43;;;;;;;26.70;21.00;;;4.10;84.40;;;;;;10418436;28;20230;-81
2022/03/04 08:47:48;;;;;;;25.57;21.50;;;4.30;84.60;;;;;;10419613;28;20232;-83
2022/03/04 08:52:50;;;;;;;23.83;21.33;;;4.50;83.80;;;;;;10382592;28;20221;-81
2022/03/04 08:57:53;;;;;;;25.50;20.90;;;4.70;84.80;;;;;;10360751;28;20717;-82
2022/03/04 09:02:56;;;;;;;28.40;20.63;;;4.80;83.70;;;;;;10380701;28;20222;-83
2022/03/04 09:07:58;;;;;;;25.37;19.83;;;5.00;83.90;;;;;;10389376;28;20195;-83
2022/03/04 09:13:02;;;;;;;25.20;21.50;;;5.20;84.00;;;;;;10393366;28;20692;-83
2022/03/04 09:18:04;;;;;;;24.50;20.67;;;5.40;83.50;;;;;;10377206;28;20218;-83
2022/03/04 09:23:06;;;;;;;27.87;20.73;;;5.60;83.30;;;;;;10383535;28;20288;-82
2022/03/04 09:28:22;;;;;;;25.47;20.67;;;5.80;81.70;;;;;;10381417;28;20222;-83
2022/03/04 09:33:24;;;;;;;24.03;20.27;;;6.10;79.00;;;;;;10388020;28;20225;-83
2022/03/04 09:38:26;;;;;;;26.27;21.93;;;6.20;79.40;;;;;;10382991;28;20616;-82
2022/03/04 09:43:29;;;;;;;29.17;23.83;;;6.50;75.70;;;;;;10376881;28;20635;-85
2022/03/04 09:48:39;;;;;;;24.73;20.73;;;6.60;75.60;;;;;;10403806;28;20228;-82
2022/03/04 09:53:41;;;;;;;26.33;21.20;;;6.80;75.60;;;;;;10378101;28;20210;-82
2022/03/04 09:58:45;;;;;;;27.67;20.90;;;7.00;75.30;;;;;;10413664;28;20312;-83
2022/03/04 10:03:49;;;;;;;25.73;22.00;;;7.20;76.80;;;;;;10407122;28;20213;-82
2022/03/04 10:08:52;;;;;;;24.30;20.50;;;7.40;73.80;;;;;;10413009;28;20202;-82
2022/03/04 10:13:59;;;;;;;24.10;20.70;;;7.50;73.40;;;;;;10403620;28;20478;-82
2022/03/04 10:19:09;;;;;;;25.17;21.10;;;7.60;75.40;;;;;;10423956;28;20198;-82
2022/03/04 10:24:12;;;;;;;27.10;22.07;;;7.60;76.20;;;;;;10404469;28;20316;-82
2022/03/04 10:29:20;;;;;;;27.57;22.47;;;7.50;74.20;;;;;;10427869;28;20686;-82
2022/03/04 10:34:22;;;;;;;25.70;20.80;;;7.40;75.10;;;;;;10426638;28;20273;-82
2022/03/04 10:39:24;;;;;;;24.87;20.93;;;7.30;76.30;;;;;;10420047;28;20217;-82
2022/03/04 10:44:29;;;;;;;28.23;22.03;;;7.30;76.10;;;;;;10419608;28;20253;-82
2022/03/04 10:49:31;;;;;;;26.50;21.70;;;7.30;75.80;;;;;;10428538;28;20225;-85
2022/03/04 10:54:33;;;;;;;27.33;22.50;;;7.30;77.10;;;;;;10413668;28;20198;-83
2022/03/04 10:59:55;;;;;;;23.30;20.40;;;7.30;74.10;;;;;;10406396;28;20294;-85
2022/03/04 11:04:58;;;;;;;24.97;19.60;;;7.30;73.70;;;;;;10393151;28;20598;-84
2022/03/04 11:10:00;;;;;;;27.20;21.67;;;7.30;70.60;;;;;;10406186;28;20289;-83
2022/03/04 11:15:04;;;;;;;22.30;19.60;;;7.20;70.80;;;;;;10400875;28;20190;-84
2022/03/04 11:20:08;;;;;;;26.40;20.57;;;7.20;71.40;;;;;;10415853;28;20267;-83
2022/03/04 11:25:12;;;;;;;24.13;21.50;;;7.20;69.70;;;;;;10423684;28;20218;-84
2022/03/04 11:30:41;;;;;;;22.67;18.67;;;7.20;70.20;;;;;;10417732;28;20252;-83
2022/03/04 11:36:08;;;;;;;24.50;20.50;;;7.30;73.10;;;;;;10402357;28;20195;-83
2022/03/04 11:41:11;;;;;;;22.10;19.20;;;7.30;73.00;;;;;;10418948;28;20257;-84
2022/03/04 11:46:20;;;;;;;22.50;19.33;;;7.30;75.60;;;;;;10425794;28;20218;-84
2022/03/04 11:51:22;;;;;;;27.00;21.13;;;7.40;74.00;;;;;;10429306;28;20234;-84
2022/03/04 11:56:26;;;;;;;25.40;21.43;;;7.50;73.90;;;;;;10432414;28;20221;-83
2022/03/04 12:01:34;;;;;;;24.03;20.63;;;7.50;72.80;;;;;;10399519;28;20229;-84
2022/03/04 12:06:36;;;;;;;22.83;19.00;;;7.50;70.10;;;;;;10418923;28;20229;-83
2022/03/04 12:11:38;;;;;;;21.97;18.47;;;7.60;70.50;;;;;;10402928;28;20252;-83
2022/03/04 12:16:50;;;;;;;25.30;19.10;;;7.70;70.90;;;;;;10420500;28;20681;-84
2022/03/04 12:21:57;;;;;;;20.07;17.87;;;7.80;63.20;;;;;;10403296;28;20651;-83
2022/03/04 12:27:00;;;;;;;20.90;17.93;;;7.70;69.30;;;;;;10401006;28;20596;-83
2022/03/04 12:32:05;;;;;;;20.97;16.40;;;7.70;63.70;;;;;;10418220;28;20600;-83
2022/03/04 12:37:14;;;;;;;19.30;16.13;;;7.70;65.20;;;;;;10411927;28;20193;-83
2022/03/04 12:42:16;;;;;;;15.63;13.60;;;7.70;67.30;;;;;;10403735;28;20226;-84
2022/03/04 12:47:20;;;;;;;15.97;13.33;;;7.80;66.60;;;;;;10416797;28;20410;-83
2022/03/04 12:52:22;;;;;;;16.80;13.80;;;7.80;64.00;;;;;;10417852;28;20645;-83
2022/03/04 12:57:27;;;;;;;16.70;14.50;;;7.80;63.50;;;;;;10399547;28;20557;-85
2022/03/04 13:02:35;;;;;;;16.57;13.30;;;7.90;57.70;;;;;;10416789;28;20319;-85
2022/03/04 13:07:37;;;;;;;16.40;14.70;;;8.00;63.30;;;;;;10396690;28;20244;-85
2022/03/04 13:12:44;;;;;;;15.17;13.17;;;8.10;62.30;;;;;;10415918;28;20232;-85
2022/03/04 13:17:50;;;;;;;15.00;12.87;;;8.20;59.10;;;;;;10396113;28;20210;-86
2022/03/04 13:23:03;;;;;;;15.53;13.30;;;8.20;63.10;;;;;;10400098;28;20222;-84
2022/03/04 13:28:05;;;;;;;14.80;12.60;;;8.20;60.30;;;;;;10418345;28;20312;-84
2022/03/04 13:33:09;;;;;;;16.37;14.07;;;8.20;61.60;;;;;;10395523;28;20276;-84
2022/03/04 13:38:21;;;;;;;17.33;13.53;;;8.20;63.60;;;;;;10401503;28;20230;-83
2022/03/04 13:43:32;;;;;;;17.70;13.47;;;8.30;62.40;;;;;;10400795;28;20233;-84
2022/03/04 13:48:35;;;;;;;15.37;13.77;;;8.30;64.80;;;;;;10388728;28;20222;-84
2022/03/04 13:53:55;;;;;;;14.73;12.40;;;8.30;56.00;;;;;;10392869;28;20218;-83
2022/03/04 13:58:59;;;;;;;15.60;13.60;;;8.30;61.40;;;;;;10399694;28;20205;-85
2022/03/04 14:04:11;;;;;;;14.70;11.30;;;8.30;57.60;;;;;;10400489;28;20194;-83
2022/03/04 14:09:13;;;;;;;14.00;12.63;;;8.40;63.60;;;;;;10404144;28;20587;-83
2022/03/04 14:14:15;;;;;;;18.30;13.60;;;8.40;63.00;;;;;;10410429;28;20254;-83
2022/03/04 14:19:19;;;;;;;15.00;12.60;;;8.40;64.30;;;;;;10425699;28;20198;-84
2022/03/04 14:24:21;;;;;;;18.30;13.97;;;8.40;59.80;;;;;;10428781;28;20234;-84
2022/03/04 14:29:24;;;;;;;16.20;12.83;;;8.40;66.60;;;;;;10417075;28;20225;-82
2022/03/04 14:34:30;;;;;;;13.93;12.40;;;8.40;57.60;;;;;;10430551;28;20210;-83
2022/03/04 14:44:36;;;;;;;14.07;12.57;;;8.60;58.40;;;;;;10335507;28;20219;-80
2022/03/04 14:49:40;;;;;;;17.13;14.50;;;8.60;56.10;;;;;;10322894;28;20290;-80
2022/03/04 14:54:42;;;;;;;15.60;12.50;;;8.60;56.50;;;;;;10321712;28;20225;-80
2022/03/04 14:59:44;;;;;;;11.67;10.17;;;8.60;59.30;;;;;;10320183;28;20298;-80
2022/03/04 15:04:48;;;;;;;14.67;11.97;;;8.70;62.90;;;;;;10320993;28;20655;-80
2022/03/04 15:09:50;;;;;;;15.57;12.30;;;8.60;61.50;;;;;;10331146;28;20667;-80
2022/03/04 15:14:52;;;;;;;16.30;13.30;;;8.70;62.20;;;;;;10336403;28;20204;-80
2022/03/04 15:19:56;;;;;;;15.00;12.53;;;8.70;57.40;;;;;;10317511;28;20233;-80
2022/03/04 15:24:59;;;;;;;14.20;11.73;;;8.70;55.90;;;;;;10318203;28;20247;-79
2022/03/04 15:30:01;;;;;;;15.37;12.43;;;8.80;58.40;;;;;;10319426;28;20695;-80
2022/03/04 15:35:05;;;;;;;12.90;11.30;;;8.80;61.90;;;;;;10338147;28;20209;-80
2022/03/04 15:40:10;;;;;;;13.50;11.20;;;8.80;59.40;;;;;;10317794;28;20235;-80
2022/03/04 15:45:13;;;;;;;18.43;12.30;;;8.80;62.60;;;;;;10302194;28;20314;-80
2022/03/04 15:50:17;;;;;;;13.03;11.73;;;8.80;59.50;;;;;;10337222;28;20302;-79
2022/03/04 15:55:19;;;;;;;14.73;12.17;;;8.80;55.90;;;;;;10320165;28;20649;-81
2022/03/04 16:00:21;;;;;;;11.70;10.60;;;8.80;56.90;;;;;;10313637;28;20591;-80
2022/03/04 16:05:25;;;;;;;12.57;11.27;;;8.80;61.10;;;;;;10298671;28;20580;-80
2022/03/04 16:10:28;;;;;;;12.60;11.27;;;8.80;59.10;;;;;;10314108;28;20223;-80
2022/03/04 16:15:30;;;;;;;14.27;10.80;;;8.80;57.80;;;;;;10324296;28;20278;-80
2022/03/04 16:20:34;;;;;;;14.40;11.70;;;8.80;55.70;;;;;;10313592;28;20322;-80
2022/03/04 16:25:36;;;;;;;12.50;10.70;;;8.80;56.20;;;;;;10312206;28;20223;-80
2022/03/04 16:30:38;;;;;;;13.70;12.30;;;8.80;58.70;;;;;;10294554;28;20573;-78
2022/03/04 16:35:42;;;;;;;12.90;11.00;;;8.70;63.60;;;;;;10299476;28;20661;-80
2022/03/04 16:40:45;;;;;;;13.07;10.63;;;8.70;61.60;;;;;;10316108;28;20266;-79
2022/03/04 16:45:47;;;;;;;13.23;11.90;;;8.70;61.50;;;;;;10318400;28;20291;-78
2022/03/04 16:50:51;;;;;;;13.13;11.20;;;8.60;65.50;;;;;;10315232;28;20239;-79
2022/03/04 16:55:53;;;;;;;13.70;12.20;;;8.60;63.70;;;;;;10315676;28;20195;-78
2022/03/04 17:00:55;;;;;;;13.23;10.80;;;8.50;60.60;;;;;;10316303;28;20309;-78
2022/03/04 17:05:59;;;;;;;13.20;10.90;;;8.40;63.10;;;;;;10333207;28;20246;-78
2022/03/04 17:11:02;;;;;;;13.47;10.00;;;8.30;65.70;;;;;;10315331;28;20699;-78
2022/03/04 17:16:04;;;;;;;13.43;10.90;;;8.20;67.40;;;;;;10315248;28;20221;-78
2022/03/04 17:21:08;;;;;;;13.00;9.77;;;8.10;68.50;;;;;;10315680;28;20211;-78
2022/03/04 17:26:11;;;;;;;12.83;9.67;;;8.10;69.80;;;;;;10316416;28;20215;-79
2022/03/04 17:31:13;;;;;;;15.77;13.03;;;8.00;70.30;;;;;;10299382;28;20289;-79
2022/03/04 17:36:17;;;;;;;20.47;13.83;;;7.90;66.50;;;;;;10299396;28;20192;-79
2022/03/04 17:41:20;;;;;;;12.40;10.90;;;7.90;64.90;;;;;;10315824;28;20602;-79
2022/03/04 17:46:23;;;;;;;12.53;11.20;;;7.70;66.10;;;;;;10319556;28;20580;-79
2022/03/04 17:51:32;;;;;;;14.37;12.93;;;7.50;64.50;;;;;;10322490;28;20309;-79
2022/03/04 17:56:35;;;;;;;22.37;19.90;;;7.30;64.80;;;;;;10341434;28;20208;-79
2022/03/04 18:01:37;;;;;;;23.43;17.53;;;7.10;67.10;;;;;;10340232;28;20218;-79
2022/03/04 18:06:40;;;;;;;20.80;16.20;;;7.00;66.60;;;;;;10341503;28;20265;-79
2022/03/04 18:11:42;;;;;;;24.27;19.13;;;6.80;67.70;;;;;;10341616;28;20231;-79
2022/03/04 18:16:45;;;;;;;26.87;20.30;;;6.70;67.70;;;;;;10332973;28;20211;-79
2022/03/04 18:21:49;;;;;;;36.57;27.10;;;6.60;68.00;;;;;;10353059;28;20251;-79
2022/03/04 18:26:51;;;;;;;18.07;14.47;;;6.40;67.60;;;;;;10332027;28;20246;-79
2022/03/04 18:31:53;;;;;;;11.47;10.33;;;6.20;69.60;;;;;;10320973;28;20222;-79
2022/03/04 18:36:56;;;;;;;11.67;10.07;;;6.10;71.00;;;;;;10337477;28;20211;-79
2022/03/04 18:41:59;;;;;;;14.70;9.70;;;6.10;68.00;;;;;;10319724;28;20223;-78
2022/03/04 18:47:01;;;;;;;9.60;8.60;;;5.90;68.90;;;;;;10337050;28;20218;-78
2022/03/04 18:52:05;;;;;;;11.23;9.10;;;5.80;69.10;;;;;;10337641;28;20219;-78
2022/03/04 18:57:08;;;;;;;12.00;8.67;;;5.70;69.40;;;;;;10318603;28;20198;-79
2022/03/04 19:02:10;;;;;;;9.80;7.37;;;5.60;69.30;;;;;;10336942;28;20245;-78
2022/03/04 19:07:14;;;;;;;10.70;8.63;;;5.50;69.10;;;;;;10336439;28;20266;-78
2022/03/04 19:12:16;;;;;;;10.37;9.20;;;5.40;68.50;;;;;;10335506;28;20599;-79
2022/03/04 19:17:18;;;;;;;16.80;12.80;;;5.40;70.90;;;;;;10335985;28;20706;-79
2022/03/04 19:22:21;;;;;;;16.60;11.13;;;5.30;70.90;;;;;;10335292;28;20755;-79
2022/03/04 19:27:23;;;;;;;12.93;8.73;;;5.30;70.20;;;;;;10338233;28;20230;-79
2022/03/04 19:32:29;;;;;;;13.87;9.93;;;5.20;71.10;;;;;;10302194;28;20281;-78
2022/03/04 19:37:32;;;;;;;16.10;11.10;;;5.20;70.80;;;;;;10317693;28;20204;-79
2022/03/04 19:42:35;;;;;;;14.90;11.17;;;5.10;71.30;;;;;;10302357;28;20318;-80
2022/03/04 19:47:37;;;;;;;14.50;11.50;;;5.10;69.90;;;;;;10334112;28;20592;-79
2022/03/04 19:52:42;;;;;;;17.30;12.20;;;5.00;69.90;;;;;;10317572;28;20229;-79
2022/03/04 19:57:45;;;;;;;15.20;10.60;;;5.00;71.00;;;;;;10334542;28;20188;-78
2022/03/04 20:02:47;;;;;;;15.73;11.70;;;4.90;70.00;;;;;;10333848;28;20235;-78
2022/03/04 20:07:50;;;;;;;15.40;11.10;;;4.80;69.90;;;;;;10333620;28;20300;-78
2022/03/04 20:12:53;;;;;;;17.00;11.50;;;4.80;70.40;;;;;;10334819;28;20217;-80
2022/03/04 20:17:55;;;;;;;15.00;11.03;;;4.70;70.70;;;;;;10334429;28;20286;-78
2022/03/04 20:22:58;;;;;;;13.87;10.40;;;4.60;71.30;;;;;;10316839;28;20234;-79
2022/03/04 20:28:00;;;;;;;14.70;11.83;;;4.60;73.30;;;;;;10316839;28;20223;-79
2022/03/04 20:33:03;;;;;;;13.13;10.83;;;4.50;71.70;;;;;;10335002;28;20247;-78
2022/03/04 20:38:07;;;;;;;17.67;10.97;;;4.50;72.30;;;;;;10317134;28;20679;-79
2022/03/04 20:43:10;;;;;;;13.97;10.10;;;4.40;72.40;;;;;;10443701;22;20233;-82
2022/03/04 20:48:12;;;;;;;10.87;9.63;;;4.30;71.60;;;;;;10445817;28;20665;-83
2022/03/04 20:53:16;;;;;;;10.57;9.50;;;4.20;72.50;;;;;;10442719;28;20224;-83
2022/03/04 20:58:18;;;;;;;12.00;9.93;;;4.20;72.70;;;;;;10397372;28;20209;-81
2022/03/04 21:03:21;;;;;;;15.40;12.40;;;4.10;72.10;;;;;;10396441;28;20217;-82
2022/03/04 21:08:24;;;;;;;10.90;9.13;;;4.10;73.50;;;;;;10380465;28;20222;-86
2022/03/04 21:13:26;;;;;;;8.43;7.53;;;4.10;73.70;;;;;;10414890;28;20217;-82
2022/03/04 21:18:29;;;;;;;9.93;8.57;;;4.00;73.70;;;;;;10397058;28;20195;-81
2022/03/04 21:23:33;;;;;;;13.83;11.90;;;4.00;75.00;;;;;;10379499;28;20225;-84
2022/03/04 21:28:35;;;;;;;11.67;10.30;;;4.10;73.50;;;;;;10396288;28;20277;-82
2022/03/04 21:33:37;;;;;;;15.17;11.07;;;4.00;74.50;;;;;;10397027;28;20586;-83
2022/03/04 21:38:41;;;;;;;12.00;9.90;;;4.00;74.00;;;;;;10378965;28;20194;-85
2022/03/04 21:43:44;;;;;;;13.20;10.57;;;4.00;74.10;;;;;;10378045;28;20575;-82
2022/03/04 21:48:46;;;;;;;13.20;10.57;;;3.90;73.90;;;;;;10378364;28;20313;-85
2022/03/04 21:53:50;;;;;;;15.23;12.57;;;3.90;74.90;;;;;;10395298;28;20214;-82
2022/03/04 21:58:52;;;;;;;13.97;12.43;;;3.80;75.30;;;;;;10379042;28;20577;-84
2022/03/04 22:03:55;;;;;;;13.60;12.10;;;3.80;75.80;;;;;;10408814;28;20228;-85
2022/03/04 22:09:00;;;;;;;15.27;13.60;;;3.80;75.50;;;;;;10418982;28;20216;-84
2022/03/04 22:14:03;;;;;;;17.40;12.60;;;3.80;74.80;;;;;;10435954;28;20213;-85
2022/03/04 22:19:05;;;;;;;16.37;12.60;;;3.80;77.00;;;;;;10421036;28;20285;-86
2022/03/04 22:24:09;;;;;;;14.40;11.50;;;3.80;75.10;;;;;;10421661;28;20221;-85
2022/03/04 22:29:11;;;;;;;13.93;11.60;;;3.70;74.70;;;;;;10435122;28;20205;-85
2022/03/04 22:34:13;;;;;;;15.90;13.00;;;3.70;75.60;;;;;;10439059;28;20308;-83
2022/03/04 22:39:16;;;;;;;16.53;12.93;;;3.70;75.10;;;;;;10435864;28;20209;-83
2022/03/04 22:44:18;;;;;;;18.20;14.13;;;3.60;75.40;;;;;;10436300;28;20229;-83
2022/03/04 22:49:21;;;;;;;15.17;12.57;;;3.70;75.00;;;;;;10422030;28;20677;-84
2022/03/04 22:54:24;;;;;;;13.77;11.60;;;3.60;75.70;;;;;;10432261;28;20275;-83
2022/03/04 22:59:26;;;;;;;14.30;12.30;;;3.60;76.50;;;;;;10421497;28;20288;-84
2022/03/04 23:11:22;;;;;;;17.70;13.60;;;3.50;76.40;;;;;;10429152;28;20221;-84
2022/03/04 23:15:11;;;;;;;17.83;13.50;;;3.50;76.80;;;;;;10441355;28;20316;-83
2022/03/04 23:20:14;;;;;;;15.30;13.10;;;3.50;77.80;;;;;;10424626;28;20271;-83
2022/03/04 23:25:17;;;;;;;14.23;12.73;;;3.50;75.30;;;;;;10426895;28;20716;-83
2022/03/04 23:30:19;;;;;;;15.80;12.90;;;3.40;76.50;;;;;;10428541;28;20260;-83
2022/03/04 23:35:22;;;;;;;12.90;11.47;;;3.40;76.30;;;;;;10461109;28;20667;-83
2022/03/04 23:40:25;;;;;;;13.27;11.87;;;3.40;76.40;;;;;;10442150;28;20257;-82
2022/03/04 23:45:30;;;;;;;15.53;12.30;;;3.30;75.50;;;;;;10417656;28;20197;-83
2022/03/04 23:50:33;;;;;;;14.00;11.40;;;3.30;75.60;;;;;;10437197;28;20596;-82
2022/03/04 23:55:37;;;;;;;11.97;10.70;;;3.30;77.30;;;;;;10418399;28;20584;-83
